Time;durP1;ratioP1;P1;durP2;ratioP2;P2;SDS_P1;SDS_P2;PMS_P1;PMS_P2;Temp;Humidity;BMP_temperature;BMP_pressure;BME280_temperature;BME280_humidity;BME280_pressure;Samples;Min_cycle;Max_cycle;Signal;HPM_P1;HPM_P2
2023/07/22 00:01:12;;;;;;;21.95;9.18;;;;;;;;;;5073420;28;20024;-74
2023/07/22 00:03:38;;;;;;;17.58;9.25;;;;;;;;;;5077926;28;20028;-75
2023/07/22 00:06:07;;;;;;;15.80;8.85;;;;;;;;;;5078875;28;20031;-74
2023/07/22 00:08:34;;;;;;;19.77;9.60;;;;;;;;;;5084495;28;20040;-74
2023/07/22 00:11:00;;;;;;;23.88;9.60;;;;;;;;;;5076768;28;20028;-74
2023/07/22 00:13:26;;;;;;;18.98;10.00;;;;;;;;;;5077164;28;20024;-75
2023/07/22 00:15:53;;;;;;;21.08;10.13;;;;;;;;;;5078142;28;20103;-74
2023/07/22 00:18:19;;;;;;;17.75;10.38;;;;;;;;;;5077335;28;20031;-74
2023/07/22 00:20:45;;;;;;;18.42;10.32;;;;;;;;;;5076370;28;20087;-74
2023/07/22 00:23:11;;;;;;;17.35;10.13;;;;;;;;;;5076558;28;20512;-74
2023/07/22 00:25:37;;;;;;;16.63;9.52;;;;;;;;;;5082242;28;20491;-75
2023/07/22 00:28:04;;;;;;;20.27;10.88;;;;;;;;;;5090682;28;20043;-74
2023/07/22 00:30:30;;;;;;;16.38;9.65;;;;;;;;;;5090288;28;20443;-75
2023/07/22 00:32:56;;;;;;;23.25;10.88;;;;;;;;;;5093494;28;20036;-75
2023/07/22 00:35:22;;;;;;;17.70;9.65;;;;;;;;;;5098546;28;20024;-74
2023/07/22 00:37:48;;;;;;;20.80;10.25;;;;;;;;;;5097085;28;20048;-74
2023/07/22 00:40:14;;;;;;;20.35;10.57;;;;;;;;;;5087179;28;20025;-74
2023/07/22 00:42:40;;;;;;;24.23;11.63;;;;;;;;;;5083130;28;20029;-73
2023/07/22 00:45:07;;;;;;;20.63;10.77;;;;;;;;;;5083822;28;20055;-73
2023/07/22 00:47:36;;;;;;;21.08;10.68;;;;;;;;;;5078426;28;20072;-73
2023/07/22 00:50:06;;;;;;;17.10;9.88;;;;;;;;;;5079030;28;20025;-73
2023/07/22 00:52:32;;;;;;;22.23;10.43;;;;;;;;;;5091864;28;20084;-74
2023/07/22 00:54:58;;;;;;;22.02;10.23;;;;;;;;;;5081304;28;20044;-75
2023/07/22 00:57:24;;;;;;;18.40;10.30;;;;;;;;;;5072896;28;20032;-75
2023/07/22 00:59:50;;;;;;;21.95;11.93;;;;;;;;;;5072886;28;20078;-75
2023/07/22 01:02:17;;;;;;;26.23;12.52;;;;;;;;;;5071785;28;20112;-75
2023/07/22 01:04:43;;;;;;;21.30;11.48;;;;;;;;;;5072820;28;20029;-75
2023/07/22 01:07:10;;;;;;;22.60;11.88;;;;;;;;;;5072382;28;20051;-74
2023/07/22 01:09:39;;;;;;;25.83;12.23;;;;;;;;;;5072738;28;20498;-75
2023/07/22 01:12:08;;;;;;;24.25;11.02;;;;;;;;;;5071678;28;20048;-75
2023/07/22 01:14:38;;;;;;;22.60;11.10;;;;;;;;;;5070893;28;20393;-75
2023/07/22 01:17:05;;;;;;;20.38;11.60;;;;;;;;;;5072615;28;20475;-74
2023/07/22 01:19:31;;;;;;;22.17;12.07;;;;;;;;;;5072587;28;20059;-74
2023/07/22 01:21:58;;;;;;;24.58;12.00;;;;;;;;;;5071357;28;20029;-74
2023/07/22 01:24:24;;;;;;;23.92;12.10;;;;;;;;;;5072580;28;20028;-75
2023/07/22 01:26:50;;;;;;;26.15;12.18;;;;;;;;;;5072135;28;20119;-75
2023/07/22 01:29:16;;;;;;;21.67;11.73;;;;;;;;;;5072650;28;20029;-74
2023/07/22 01:31:42;;;;;;;24.00;12.10;;;;;;;;;;5072013;28;20035;-74
2023/07/22 01:34:08;;;;;;;22.63;11.48;;;;;;;;;;5071837;28;20090;-75
2023/07/22 01:36:34;;;;;;;24.63;11.90;;;;;;;;;;5072402;28;20032;-74
2023/07/22 01:39:00;;;;;;;22.48;11.63;;;;;;;;;;5072219;28;20037;-75
2023/07/22 01:41:26;;;;;;;22.98;11.70;;;;;;;;;;5071975;28;20020;-75
2023/07/22 01:43:52;;;;;;;21.95;12.40;;;;;;;;;;5071575;28;20017;-75
2023/07/22 01:46:18;;;;;;;26.30;12.55;;;;;;;;;;5071656;28;20373;-74
2023/07/22 01:48:44;;;;;;;22.55;11.50;;;;;;;;;;5071605;28;20047;-74
2023/07/22 01:51:11;;;;;;;27.50;12.40;;;;;;;;;;5072091;28;20035;-74
2023/07/22 01:53:37;;;;;;;24.35;12.25;;;;;;;;;;5070821;28;20462;-76
2023/07/22 01:56:03;;;;;;;23.40;11.63;;;;;;;;;;5071758;28;20032;-74
2023/07/22 01:58:30;;;;;;;29.38;12.50;;;;;;;;;;5072776;28;20025;-74
2023/07/22 02:00:56;;;;;;;21.85;10.82;;;;;;;;;;5071433;28;20382;-73
2023/07/22 02:03:22;;;;;;;27.02;13.05;;;;;;;;;;5070978;28;20051;-73
2023/07/22 02:05:48;;;;;;;25.25;11.57;;;;;;;;;;5071962;28;20036;-73
2023/07/22 02:08:14;;;;;;;22.45;10.75;;;;;;;;;;5071767;28;20086;-74
2023/07/22 02:10:40;;;;;;;28.38;11.23;;;;;;;;;;5071632;28;20028;-77
2023/07/22 02:13:06;;;;;;;17.85;9.80;;;;;;;;;;5066739;28;20457;-74
2023/07/22 02:15:35;;;;;;;20.60;9.82;;;;;;;;;;5071491;28;20028;-73
2023/07/22 02:18:01;;;;;;;21.45;10.00;;;;;;;;;;5071363;28;20033;-73
2023/07/22 02:20:28;;;;;;;19.52;10.10;;;;;;;;;;5071138;28;20385;-74
2023/07/22 02:22:55;;;;;;;24.85;10.20;;;;;;;;;;5070521;28;20508;-75
2023/07/22 02:25:21;;;;;;;27.95;10.30;;;;;;;;;;5070450;28;20386;-74
2023/07/22 02:27:46;;;;;;;26.95;10.25;;;;;;;;;;5071091;28;20028;-74
2023/07/22 02:30:12;;;;;;;25.45;10.43;;;;;;;;;;5071175;28;20078;-75
2023/07/22 02:32:39;;;;;;;16.85;9.10;;;;;;;;;;5070200;28;20063;-76
2023/07/22 02:35:06;;;;;;;26.58;10.82;;;;;;;;;;5070937;28;20450;-75
2023/07/22 02:37:32;;;;;;;20.38;9.40;;;;;;;;;;5070803;28;20058;-75
2023/07/22 02:39:58;;;;;;;23.73;10.77;;;;;;;;;;5070397;28;20103;-75
2023/07/22 02:42:24;;;;;;;23.75;10.48;;;;;;;;;;5069851;28;20434;-76
2023/07/22 02:44:50;;;;;;;20.90;10.25;;;;;;;;;;5070988;28;20028;-76
2023/07/22 02:47:16;;;;;;;22.85;10.35;;;;;;;;;;5070874;28;20024;-76
2023/07/22 02:49:42;;;;;;;30.67;10.27;;;;;;;;;;5070579;28;20509;-74
2023/07/22 02:52:08;;;;;;;21.38;10.27;;;;;;;;;;5069443;28;20441;-75
2023/07/22 02:54:41;;;;;;;25.15;10.10;;;;;;;;;;5070565;28;20056;-75
2023/07/22 02:57:07;;;;;;;29.27;10.77;;;;;;;;;;5070666;28;20525;-75
2023/07/22 02:59:33;;;;;;;24.80;10.00;;;;;;;;;;5070467;28;20043;-75
2023/07/22 03:01:59;;;;;;;25.38;10.82;;;;;;;;;;5070011;28;20040;-76
2023/07/22 03:04:25;;;;;;;23.75;10.20;;;;;;;;;;5070561;28;20496;-76
2023/07/22 03:06:52;;;;;;;23.83;10.77;;;;;;;;;;5070574;28;20506;-75
2023/07/22 03:09:18;;;;;;;24.60;10.30;;;;;;;;;;5070700;28;20027;-75
2023/07/22 03:11:44;;;;;;;24.42;10.18;;;;;;;;;;5070118;28;20115;-76
2023/07/22 03:14:10;;;;;;;26.65;10.25;;;;;;;;;;5070626;28;20044;-74
2023/07/22 03:16:36;;;;;;;27.77;10.52;;;;;;;;;;5070690;28;20044;-74
2023/07/22 03:19:04;;;;;;;21.77;10.48;;;;;;;;;;5070990;28;20033;-74
2023/07/22 03:21:30;;;;;;;24.02;10.80;;;;;;;;;;5053043;28;20553;-74
2023/07/22 03:23:56;;;;;;;23.05;10.43;;;;;;;;;;5070211;28;20032;-73
2023/07/22 03:26:22;;;;;;;21.85;10.70;;;;;;;;;;5070959;28;20474;-75
2023/07/22 03:28:48;;;;;;;23.63;10.82;;;;;;;;;;5070007;28;20020;-74
2023/07/22 03:31:14;;;;;;;24.98;11.05;;;;;;;;;;5071403;28;20056;-73
2023/07/22 03:33:42;;;;;;;27.90;11.23;;;;;;;;;;5070521;28;20087;-74
2023/07/22 03:36:08;;;;;;;26.55;11.02;;;;;;;;;;5072802;28;20094;-73
2023/07/22 03:38:34;;;;;;;20.85;10.02;;;;;;;;;;5074301;28;20471;-74
2023/07/22 03:41:00;;;;;;;27.08;11.25;;;;;;;;;;5074302;28;20035;-73
2023/07/22 03:43:26;;;;;;;26.65;11.27;;;;;;;;;;5072570;28;20032;-72
2023/07/22 03:45:52;;;;;;;22.15;10.90;;;;;;;;;;5079296;28;20021;-73
2023/07/22 03:48:18;;;;;;;24.00;11.10;;;;;;;;;;5099717;28;20052;-73
2023/07/22 03:50:44;;;;;;;23.13;10.88;;;;;;;;;;5097991;28;20040;-74
2023/07/22 03:53:10;;;;;;;24.73;11.85;;;;;;;;;;5084405;28;20085;-74
2023/07/22 03:55:36;;;;;;;26.42;10.95;;;;;;;;;;5075362;28;20021;-75
2023/07/22 03:58:02;;;;;;;23.75;11.05;;;;;;;;;;5073726;28;20435;-75
2023/07/22 04:00:28;;;;;;;27.73;11.02;;;;;;;;;;5074245;28;20025;-74
2023/07/22 04:02:54;;;;;;;28.20;11.52;;;;;;;;;;5073232;28;20024;-74
2023/07/22 04:05:20;;;;;;;28.73;11.65;;;;;;;;;;5074628;28;20095;-74
2023/07/22 04:07:46;;;;;;;23.90;11.07;;;;;;;;;;5074509;28;20761;-74
2023/07/22 04:10:12;;;;;;;25.40;11.35;;;;;;;;;;5073914;28;20027;-74
2023/07/22 04:12:38;;;;;;;33.00;11.65;;;;;;;;;;5069459;28;20032;-74
2023/07/22 04:15:05;;;;;;;21.77;10.57;;;;;;;;;;5074008;28;20032;-79
2023/07/22 04:17:31;;;;;;;24.63;10.82;;;;;;;;;;5073985;28;20028;-75
2023/07/22 04:19:57;;;;;;;23.15;10.27;;;;;;;;;;5073456;28;20029;-75
2023/07/22 04:22:23;;;;;;;29.92;11.07;;;;;;;;;;5074222;28;20033;-74
2023/07/22 04:24:49;;;;;;;27.77;10.75;;;;;;;;;;5073234;28;20478;-74
2023/07/22 04:27:15;;;;;;;27.65;11.02;;;;;;;;;;5073071;28;20039;-75
2023/07/22 04:29:42;;;;;;;25.60;10.90;;;;;;;;;;5073245;28;20032;-75
2023/07/22 04:32:08;;;;;;;22.48;10.75;;;;;;;;;;5072621;28;20489;-74
2023/07/22 04:34:34;;;;;;;23.10;10.40;;;;;;;;;;5073422;28;20134;-74
2023/07/22 04:37:01;;;;;;;22.98;10.23;;;;;;;;;;5073306;28;20020;-75
2023/07/22 04:39:27;;;;;;;23.63;10.38;;;;;;;;;;5073259;28;20102;-74
2023/07/22 04:41:53;;;;;;;20.73;10.23;;;;;;;;;;5072497;28;20032;-73
2023/07/22 04:44:20;;;;;;;21.63;9.70;;;;;;;;;;5073355;28;20025;-74
2023/07/22 04:46:46;;;;;;;25.80;10.52;;;;;;;;;;5072582;28;20475;-75
2023/07/22 04:49:12;;;;;;;29.10;10.57;;;;;;;;;;5072624;28;20036;-74
2023/07/22 04:51:38;;;;;;;22.63;11.07;;;;;;;;;;5073763;28;20542;-74
2023/07/22 04:54:04;;;;;;;21.45;10.07;;;;;;;;;;5073406;28;20123;-74
2023/07/22 04:56:30;;;;;;;27.95;10.30;;;;;;;;;;5075530;28;20048;-76
2023/07/22 04:58:56;;;;;;;24.95;10.45;;;;;;;;;;5076392;28;20032;-77
2023/07/22 05:01:22;;;;;;;22.70;9.98;;;;;;;;;;5076485;28;20032;-76
2023/07/22 05:03:48;;;;;;;25.55;10.63;;;;;;;;;;5079159;28;20058;-76
2023/07/22 05:06:14;;;;;;;21.42;10.50;;;;;;;;;;5082039;28;20028;-74
2023/07/22 05:08:40;;;;;;;28.08;10.25;;;;;;;;;;5081904;28;20033;-76
2023/07/22 05:11:07;;;;;;;22.02;10.18;;;;;;;;;;5080951;28;20108;-74
2023/07/22 05:13:33;;;;;;;22.25;10.43;;;;;;;;;;5075638;28;20428;-76
2023/07/22 05:15:59;;;;;;;26.48;11.20;;;;;;;;;;5092558;28;20033;-74
2023/07/22 05:18:25;;;;;;;22.48;10.35;;;;;;;;;;5079415;28;20048;-74
2023/07/22 05:20:51;;;;;;;26.42;9.52;;;;;;;;;;5079588;28;20051;-73
2023/07/22 05:23:17;;;;;;;21.80;9.45;;;;;;;;;;5078144;28;20024;-74
2023/07/22 05:25:43;;;;;;;20.98;10.05;;;;;;;;;;5077391;28;20025;-74
2023/07/22 05:28:09;;;;;;;22.45;9.43;;;;;;;;;;5076325;28;20021;-74
2023/07/22 05:30:35;;;;;;;20.02;9.38;;;;;;;;;;5079211;28;20020;-74
2023/07/22 05:33:01;;;;;;;20.58;9.55;;;;;;;;;;5094709;28;20268;-79
2023/07/22 05:35:27;;;;;;;20.58;9.18;;;;;;;;;;5101667;28;20034;-79
2023/07/22 05:37:53;;;;;;;19.15;9.15;;;;;;;;;;5093731;28;20025;-76
2023/07/22 05:40:19;;;;;;;20.50;9.93;;;;;;;;;;5096612;28;20013;-74
2023/07/22 05:42:45;;;;;;;25.70;8.50;;;;;;;;;;5079277;28;20029;-73
2023/07/22 05:45:15;;;;;;;17.70;8.32;;;;;;;;;;5077368;28;20497;-73
2023/07/22 05:47:41;;;;;;;23.02;8.52;;;;;;;;;;5073246;28;20120;-75
2023/07/22 05:50:07;;;;;;;16.67;7.80;;;;;;;;;;5073308;28;20052;-73
2023/07/22 05:52:33;;;;;;;13.85;7.70;;;;;;;;;;5074278;28;20090;-74
2023/07/22 05:54:59;;;;;;;17.25;8.07;;;;;;;;;;5072683;28;20117;-74
2023/07/22 05:57:25;;;;;;;17.95;7.32;;;;;;;;;;5071580;28;20496;-73
2023/07/22 05:59:51;;;;;;;17.20;6.90;;;;;;;;;;5080547;28;20021;-73
2023/07/22 06:02:18;;;;;;;19.67;6.82;;;;;;;;;;5072026;28;20078;-74
2023/07/22 06:04:44;;;;;;;11.77;6.38;;;;;;;;;;5073580;28;20025;-72
2023/07/22 06:07:10;;;;;;;15.18;6.70;;;;;;;;;;5076964;28;20127;-74
2023/07/22 06:09:36;;;;;;;13.13;5.85;;;;;;;;;;5075826;28;20056;-74
2023/07/22 06:12:02;;;;;;;16.27;5.78;;;;;;;;;;5074426;28;20465;-74
2023/07/22 06:14:28;;;;;;;14.68;6.38;;;;;;;;;;5076198;28;20036;-77
2023/07/22 06:16:54;;;;;;;23.05;7.00;;;;;;;;;;5073250;28;20103;-76
2023/07/22 06:19:20;;;;;;;16.60;6.28;;;;;;;;;;5072591;28;20032;-77
2023/07/22 06:21:46;;;;;;;21.60;7.10;;;;;;;;;;5080883;28;20041;-77
2023/07/22 06:24:12;;;;;;;15.75;6.47;;;;;;;;;;5071608;28;20020;-77
2023/07/22 06:26:38;;;;;;;16.08;7.22;;;;;;;;;;5072375;28;20024;-77
2023/07/22 06:29:04;;;;;;;15.90;6.18;;;;;;;;;;5073208;28;20024;-77
2023/07/22 06:31:30;;;;;;;15.95;6.15;;;;;;;;;;5072610;28;20073;-77
2023/07/22 06:33:57;;;;;;;11.27;5.75;;;;;;;;;;5071869;28;20102;-75
2023/07/22 06:36:24;;;;;;;12.48;5.63;;;;;;;;;;5072206;28;20032;-75
2023/07/22 06:38:50;;;;;;;18.33;5.95;;;;;;;;;;5072065;28;20027;-74
2023/07/22 06:41:16;;;;;;;11.90;5.13;;;;;;;;;;5072150;28;20016;-73
2023/07/22 06:43:42;;;;;;;13.77;6.03;;;;;;;;;;5072439;28;20553;-74
2023/07/22 06:46:08;;;;;;;14.15;5.80;;;;;;;;;;5072195;28;20051;-72
2023/07/22 06:48:34;;;;;;;12.50;5.75;;;;;;;;;;5072084;28;20107;-74
2023/07/22 06:51:00;;;;;;;14.82;6.03;;;;;;;;;;5072107;28;20025;-74
2023/07/22 06:53:26;;;;;;;16.35;5.70;;;;;;;;;;5072383;28;20359;-76
2023/07/22 06:55:52;;;;;;;9.80;4.70;;;;;;;;;;5073981;28;20095;-75
2023/07/22 06:58:19;;;;;;;13.52;4.22;;;;;;;;;;5077162;28;20025;-74
2023/07/22 07:00:45;;;;;;;16.38;5.00;;;;;;;;;;5074128;28;20021;-73
2023/07/22 07:03:11;;;;;;;11.75;4.82;;;;;;;;;;5071718;28;20025;-73
2023/07/22 07:05:41;;;;;;;15.40;4.40;;;;;;;;;;5071775;28;20501;-74
2023/07/22 07:08:07;;;;;;;11.95;4.28;;;;;;;;;;5071899;28;20151;-74
2023/07/22 07:10:37;;;;;;;14.10;3.67;;;;;;;;;;5072027;28;20347;-75
2023/07/22 07:13:03;;;;;;;8.05;3.40;;;;;;;;;;5071356;28;20029;-75
2023/07/22 07:15:29;;;;;;;9.32;3.72;;;;;;;;;;5071801;28;20466;-74
2023/07/22 07:17:55;;;;;;;11.57;3.30;;;;;;;;;;5071997;28;20024;-74
2023/07/22 07:20:21;;;;;;;7.95;3.55;;;;;;;;;;5070513;28;20036;-73
2023/07/22 07:22:47;;;;;;;11.48;3.40;;;;;;;;;;5069840;28;20385;-74
2023/07/22 07:25:15;;;;;;;7.63;3.03;;;;;;;;;;5071421;28;20027;-74
2023/07/22 07:27:41;;;;;;;15.48;3.20;;;;;;;;;;5071557;28;20201;-74
2023/07/22 07:30:08;;;;;;;10.02;3.05;;;;;;;;;;5071902;28;20021;-74
2023/07/22 07:32:34;;;;;;;11.23;2.95;;;;;;;;;;5071523;28;20025;-74
2023/07/22 07:35:00;;;;;;;9.93;2.53;;;;;;;;;;5071895;28;20468;-77
2023/07/22 07:37:26;;;;;;;11.00;2.83;;;;;;;;;;5072513;28;20021;-74
2023/07/22 07:39:52;;;;;;;7.82;2.63;;;;;;;;;;5072470;28;20531;-75
2023/07/22 07:42:18;;;;;;;10.73;4.97;;;;;;;;;;5071700;28;20371;-74
2023/07/22 07:44:44;;;;;;;8.63;3.08;;;;;;;;;;5071321;28;20147;-76
2023/07/22 07:47:10;;;;;;;7.07;2.50;;;;;;;;;;5070325;28;20056;-73
2023/07/22 07:49:36;;;;;;;11.35;2.47;;;;;;;;;;5071473;28;20036;-74
2023/07/22 07:52:02;;;;;;;7.78;2.35;;;;;;;;;;5070761;28;20033;-74
2023/07/22 07:54:28;;;;;;;5.93;2.53;;;;;;;;;;5071304;28;20076;-74
2023/07/22 07:56:54;;;;;;;7.45;1.98;;;;;;;;;;5071477;28;20028;-75
2023/07/22 07:59:20;;;;;;;7.75;2.20;;;;;;;;;;5071367;28;20032;-73
2023/07/22 08:01:47;;;;;;;10.55;2.90;;;;;;;;;;5071398;28;20097;-74
2023/07/22 08:04:13;;;;;;;11.35;4.15;;;;;;;;;;5073547;28;20032;-75
2023/07/22 08:06:39;;;;;;;6.85;2.22;;;;;;;;;;5074857;28;20021;-74
2023/07/22 08:09:05;;;;;;;13.00;6.45;;;;;;;;;;5074960;28;20502;-76
2023/07/22 08:11:31;;;;;;;10.25;4.32;;;;;;;;;;5075413;28;20033;-74
2023/07/22 08:13:57;;;;;;;10.27;3.03;;;;;;;;;;5073015;28;20048;-74
2023/07/22 08:16:24;;;;;;;8.05;3.30;;;;;;;;;;5071533;28;20056;-76
2023/07/22 08:18:50;;;;;;;7.85;2.38;;;;;;;;;;5072674;28;20517;-74
2023/07/22 08:21:16;;;;;;;7.53;2.63;;;;;;;;;;5071577;28;20074;-76
2023/07/22 08:23:45;;;;;;;3.80;1.77;;;;;;;;;;5073930;28;20025;-75
2023/07/22 08:26:12;;;;;;;2.80;1.33;;;;;;;;;;5074598;28;20497;-74
2023/07/22 08:28:38;;;;;;;5.47;2.13;;;;;;;;;;5074698;28;20461;-76
2023/07/22 08:31:04;;;;;;;6.32;2.53;;;;;;;;;;5074500;28;20059;-75
2023/07/22 08:33:31;;;;;;;7.05;2.10;;;;;;;;;;5075458;28;20206;-81
2023/07/22 08:35:57;;;;;;;4.28;1.48;;;;;;;;;;5075213;28;20429;-75
2023/07/22 08:38:23;;;;;;;5.82;2.25;;;;;;;;;;5075234;28;20035;-78
2023/07/22 08:40:51;;;;;;;7.28;2.40;;;;;;;;;;5075409;28;20028;-77
2023/07/22 08:43:19;;;;;;;6.13;1.50;;;;;;;;;;5074556;28;20086;-79
2023/07/22 08:45:46;;;;;;;3.97;1.85;;;;;;;;;;5075717;28;20028;-79
2023/07/22 08:48:13;;;;;;;13.98;3.47;;;;;;;;;;5076232;28;20043;-77
2023/07/22 08:50:46;;;;;;;22.60;8.68;;;;;;;;;;5074343;28;20025;-76
2023/07/22 08:53:15;;;;;;;4.47;1.77;;;;;;;;;;5074633;28;20020;-77
2023/07/22 08:55:42;;;;;;;9.80;1.83;;;;;;;;;;5074640;28;20028;-76
2023/07/22 08:58:11;;;;;;;5.63;1.52;;;;;;;;;;5074702;28;20535;-77
2023/07/22 09:00:37;;;;;;;4.45;1.67;;;;;;;;;;5075233;28;20028;-76
2023/07/22 09:03:04;;;;;;;6.47;1.58;;;;;;;;;;5074158;28;20453;-74
2023/07/22 09:05:31;;;;;;;5.95;1.70;;;;;;;;;;5073715;28;20397;-73
2023/07/22 09:07:58;;;;;;;4.43;1.30;;;;;;;;;;5073708;28;20103;-75
2023/07/22 09:10:26;;;;;;;6.32;1.60;;;;;;;;;;5073546;28;20043;-73
2023/07/22 09:12:52;;;;;;;7.70;1.63;;;;;;;;;;5073325;28;20032;-75
2023/07/22 09:15:19;;;;;;;7.75;1.70;;;;;;;;;;5074161;28;20432;-75
2023/07/22 09:17:45;;;;;;;3.22;1.52;;;;;;;;;;5073545;28;20436;-73
2023/07/22 09:20:14;;;;;;;2.72;1.48;;;;;;;;;;5073703;28;20054;-76
2023/07/22 09:22:43;;;;;;;4.38;1.77;;;;;;;;;;5073082;28;20051;-75
2023/07/22 09:25:22;;;;;;;3.47;1.40;;;;;;;;;;5073711;28;20120;-74
2023/07/22 09:27:52;;;;;;;8.57;2.05;;;;;;;;;;5073680;28;20032;-76
2023/07/22 09:30:21;;;;;;;5.30;1.95;;;;;;;;;;5073369;28;20024;-74
2023/07/22 09:32:47;;;;;;;5.05;1.70;;;;;;;;;;5073037;28;20025;-73
2023/07/22 09:35:13;;;;;;;4.15;1.27;;;;;;;;;;5074200;28;20044;-76
2023/07/22 09:37:39;;;;;;;8.82;1.52;;;;;;;;;;5076796;28;20044;-75
2023/07/22 09:40:14;;;;;;;3.72;1.55;;;;;;;;;;5077135;28;20412;-75
2023/07/22 09:42:40;;;;;;;4.28;1.67;;;;;;;;;;5074857;28;20377;-76
2023/07/22 09:45:06;;;;;;;4.43;1.67;;;;;;;;;;5074133;28;20024;-78
2023/07/22 09:47:40;;;;;;;5.20;1.50;;;;;;;;;;5077343;28;20442;-77
2023/07/22 09:50:06;;;;;;;4.27;1.40;;;;;;;;;;5080032;28;20314;-78
2023/07/22 09:52:32;;;;;;;5.13;1.52;;;;;;;;;;5078343;28;20095;-74
2023/07/22 09:55:01;;;;;;;4.55;1.30;;;;;;;;;;5090564;28;20253;-75
2023/07/22 09:57:28;;;;;;;11.52;3.92;;;;;;;;;;5083885;28;20457;-75
2023/07/22 09:59:54;;;;;;;5.90;1.70;;;;;;;;;;5074605;28;20032;-74
2023/07/22 10:02:21;;;;;;;7.80;1.88;;;;;;;;;;5075249;28;20036;-74
2023/07/22 10:04:50;;;;;;;4.90;1.67;;;;;;;;;;5074739;28;20073;-75
2023/07/22 10:07:16;;;;;;;5.82;1.80;;;;;;;;;;5074364;28;20478;-73
2023/07/22 10:09:42;;;;;;;6.88;1.70;;;;;;;;;;5073572;28;20475;-74
2023/07/22 10:12:09;;;;;;;4.75;1.70;;;;;;;;;;5078832;28;20101;-74
2023/07/22 10:14:35;;;;;;;3.70;1.60;;;;;;;;;;5094153;28;20036;-73
2023/07/22 10:17:03;;;;;;;5.28;1.75;;;;;;;;;;5095884;28;20012;-74
2023/07/22 10:19:29;;;;;;;4.07;1.67;;;;;;;;;;5094373;28;20347;-75
2023/07/22 10:21:55;;;;;;;4.10;1.60;;;;;;;;;;5092659;28;20090;-74
2023/07/22 10:24:22;;;;;;;4.07;1.77;;;;;;;;;;5078542;28;20027;-75
2023/07/22 10:26:51;;;;;;;4.53;1.52;;;;;;;;;;5072667;28;20017;-75
2023/07/22 10:29:17;;;;;;;5.43;1.73;;;;;;;;;;5071978;28;20105;-76
2023/07/22 10:31:43;;;;;;;3.90;1.80;;;;;;;;;;5072588;28;20032;-75
2023/07/22 10:34:09;;;;;;;3.72;1.77;;;;;;;;;;5072601;28;20025;-74
2023/07/22 10:36:36;;;;;;;8.80;2.70;;;;;;;;;;5069197;28;20069;-74
2023/07/22 10:39:02;;;;;;;6.93;2.08;;;;;;;;;;5070529;28;20086;-75
2023/07/22 10:41:28;;;;;;;8.63;1.63;;;;;;;;;;5066978;28;20016;-73
2023/07/22 10:43:55;;;;;;;5.57;2.17;;;;;;;;;;5068506;28;20474;-74
2023/07/22 10:46:32;;;;;;;3.20;1.63;;;;;;;;;;5068442;28;20021;-74
2023/07/22 10:49:07;;;;;;;6.20;2.55;;;;;;;;;;5071557;28;20035;-76
2023/07/22 10:51:37;;;;;;;10.40;4.82;;;;;;;;;;5069418;28;20100;-74
2023/07/22 10:54:03;;;;;;;8.00;2.00;;;;;;;;;;5070523;28;20070;-75
2023/07/22 10:56:29;;;;;;;7.13;1.95;;;;;;;;;;5066918;28;20075;-74
2023/07/22 10:58:56;;;;;;;3.97;1.92;;;;;;;;;;5071295;28;20044;-75
2023/07/22 11:01:25;;;;;;;5.75;2.45;;;;;;;;;;5071835;28;20404;-75
2023/07/22 11:04:10;;;;;;;7.30;2.97;;;;;;;;;;5070787;28;20070;-76
2023/07/22 11:06:36;;;;;;;;;;;;;;;;;;5067044;28;20024;-74
2023/07/22 11:09:03;;;;;;;6.47;2.33;;;;;;;;;;5068472;28;19911;-76
2023/07/22 11:11:58;;;;;;;7.20;2.30;;;;;;;;;;5068377;28;20020;-76
2023/07/22 11:14:24;;;;;;;5.75;2.47;;;;;;;;;;5068997;28;20044;-75
2023/07/22 11:16:51;;;;;;;5.28;2.38;;;;;;;;;;5066322;28;20032;-75
2023/07/22 11:19:19;;;;;;;6.90;2.40;;;;;;;;;;5068626;28;20055;-74
2023/07/22 11:21:45;;;;;;;6.38;2.90;;;;;;;;;;5069980;28;20436;-76
2023/07/22 11:24:11;;;;;;;7.18;2.70;;;;;;;;;;5068868;28;20024;-75
2023/07/22 11:26:38;;;;;;;3.88;2.28;;;;;;;;;;5063497;28;20020;-75
2023/07/22 11:29:04;;;;;;;5.93;2.58;;;;;;;;;;5068051;28;20087;-76
2023/07/22 11:31:33;;;;;;;7.25;2.58;;;;;;;;;;5069174;28;20029;-76
2023/07/22 11:34:00;;;;;;;8.02;3.35;;;;;;;;;;5066524;28;20419;-76
2023/07/22 11:36:26;;;;;;;4.95;3.05;;;;;;;;;;5069229;28;20028;-76
2023/07/22 11:38:54;;;;;;;3.70;2.90;;;;;;;;;;5066831;28;20021;-76
2023/07/22 11:41:21;;;;;;;8.80;3.60;;;;;;;;;;5068198;28;20474;-75
2023/07/22 11:43:47;;;;;;;8.07;4.63;;;;;;;;;;5068308;28;20016;-76
2023/07/22 11:46:13;;;;;;;10.93;4.70;;;;;;;;;;5066261;28;20563;-76
2023/07/22 11:48:39;;;;;;;6.95;4.03;;;;;;;;;;5070241;28;20064;-74
2023/07/22 11:51:07;;;;;;;8.55;4.75;;;;;;;;;;5070660;28;20371;-75
2023/07/22 11:53:33;;;;;;;17.48;4.15;;;;;;;;;;5070003;28;20033;-74
2023/07/22 11:56:00;;;;;;;9.25;4.57;;;;;;;;;;5069257;28;20042;-74
2023/07/22 11:58:26;;;;;;;9.93;4.20;;;;;;;;;;5068995;28;20029;-76
2023/07/22 12:01:10;;;;;;;6.07;4.10;;;;;;;;;;5067968;28;20092;-75
2023/07/22 12:03:36;;;;;;;9.05;4.22;;;;;;;;;;5071099;28;20482;-74
2023/07/22 12:06:03;;;;;;;8.00;4.22;;;;;;;;;;5068153;28;20038;-73
2023/07/22 12:08:29;;;;;;;9.07;4.00;;;;;;;;;;5075285;28;20032;-76
2023/07/22 12:10:59;;;;;;;10.57;4.55;;;;;;;;;;5076033;28;20024;-75
2023/07/22 12:13:25;;;;;;;10.40;4.85;;;;;;;;;;5075112;28;20028;-76
2023/07/22 12:16:05;;;;;;;6.65;4.45;;;;;;;;;;5083823;28;20043;-77
2023/07/22 12:18:47;;;;;;;8.30;4.80;;;;;;;;;;5079738;28;20374;-77
2023/07/22 12:21:13;;;;;;;9.05;5.00;;;;;;;;;;5075189;28;20056;-77
2023/07/22 12:23:39;;;;;;;9.52;4.68;;;;;;;;;;5076391;28;20028;-79
2023/07/22 12:26:06;;;;;;;8.82;5.65;;;;;;;;;;5077334;28;20433;-77
2023/07/22 12:28:32;;;;;;;11.23;5.15;;;;;;;;;;5079299;28;20051;-77
2023/07/22 12:30:58;;;;;;;9.63;5.55;;;;;;;;;;5076145;28;20016;-77
2023/07/22 12:33:27;;;;;;;11.57;5.32;;;;;;;;;;5075208;28;20390;-76
2023/07/22 12:35:56;;;;;;;12.25;6.10;;;;;;;;;;5075454;28;20166;-76
2023/07/22 12:38:22;;;;;;;13.68;6.75;;;;;;;;;;5074465;28;20035;-78
2023/07/22 12:40:48;;;;;;;15.43;7.50;;;;;;;;;;5074866;28;20031;-75
2023/07/22 12:43:14;;;;;;;18.73;8.70;;;;;;;;;;5075178;28;20020;-76
2023/07/22 12:45:40;;;;;;;14.27;7.45;;;;;;;;;;5075731;28;20029;-78
2023/07/22 12:48:06;;;;;;;17.08;8.18;;;;;;;;;;5074866;28;20023;-75
2023/07/22 12:50:33;;;;;;;13.85;7.90;;;;;;;;;;5075999;28;20512;-76
2023/07/22 12:52:59;;;;;;;18.27;9.43;;;;;;;;;;5074881;28;20440;-76
2023/07/22 12:55:25;;;;;;;13.35;8.55;;;;;;;;;;5084339;28;20084;-76
2023/07/22 12:57:51;;;;;;;17.98;8.80;;;;;;;;;;5074243;28;20036;-76
2023/07/22 13:00:17;;;;;;;30.65;10.88;;;;;;;;;;5074542;28;20029;-78
2023/07/22 13:02:44;;;;;;;17.15;9.10;;;;;;;;;;5074819;28;20036;-76
2023/07/22 13:05:10;;;;;;;15.32;10.18;;;;;;;;;;5074402;28;20094;-76
2023/07/22 13:07:36;;;;;;;14.82;8.57;;;;;;;;;;5074770;28;20012;-77
2023/07/22 13:10:06;;;;;;;17.95;8.88;;;;;;;;;;5076527;28;20047;-77
2023/07/22 13:12:32;;;;;;;14.68;8.50;;;;;;;;;;5075092;28;20031;-78
2023/07/22 13:14:58;;;;;;;14.57;8.57;;;;;;;;;;5074938;28;20044;-74
2023/07/22 13:17:24;;;;;;;17.70;8.73;;;;;;;;;;5074690;28;20136;-75
2023/07/22 13:19:50;;;;;;;14.18;8.38;;;;;;;;;;5074794;28;20520;-74
2023/07/22 13:22:16;;;;;;;13.75;7.55;;;;;;;;;;5075118;28;20029;-77
2023/07/22 13:24:42;;;;;;;13.13;7.90;;;;;;;;;;5075958;28;20048;-75
2023/07/22 13:27:08;;;;;;;19.73;10.90;;;;;;;;;;5075270;28;20023;-76
2023/07/22 13:29:34;;;;;;;19.63;9.60;;;;;;;;;;5073994;28;20383;-76
2023/07/22 13:32:00;;;;;;;15.13;8.90;;;;;;;;;;5073526;28;20052;-75
2023/07/22 13:34:26;;;;;;;12.60;8.55;;;;;;;;;;5074316;28;20031;-76
2023/07/22 13:36:52;;;;;;;14.73;8.98;;;;;;;;;;5074539;28;20029;-76
2023/07/22 13:39:18;;;;;;;16.80;8.32;;;;;;;;;;5073971;28;20505;-77
2023/07/22 13:41:44;;;;;;;15.45;8.65;;;;;;;;;;5073447;28;20060;-74
2023/07/22 13:44:10;;;;;;;19.30;8.77;;;;;;;;;;5076327;28;20033;-75
2023/07/22 13:46:36;;;;;;;16.83;8.75;;;;;;;;;;5075912;28;20023;-76
2023/07/22 13:49:02;;;;;;;14.57;9.30;;;;;;;;;;5074125;28;20382;-76
2023/07/22 13:51:28;;;;;;;19.23;9.23;;;;;;;;;;5074363;28;20036;-76
2023/07/22 13:53:54;;;;;;;16.33;9.18;;;;;;;;;;5074716;28;20029;-77
2023/07/22 13:56:21;;;;;;;20.88;11.40;;;;;;;;;;5074506;28;20021;-76
2023/07/22 13:58:47;;;;;;;19.00;11.45;;;;;;;;;;5074471;28;20378;-76
2023/07/22 14:01:13;;;;;;;17.75;10.07;;;;;;;;;;5074914;28;20029;-77
2023/07/22 14:03:39;;;;;;;16.90;9.45;;;;;;;;;;5074854;28;20070;-78
2023/07/22 14:06:05;;;;;;;19.60;9.85;;;;;;;;;;5073821;28;20513;-74
2023/07/22 14:08:32;;;;;;;15.88;9.80;;;;;;;;;;5073375;28;20056;-74
2023/07/22 14:10:58;;;;;;;18.02;9.57;;;;;;;;;;5072824;28;20017;-75
2023/07/22 14:13:24;;;;;;;21.42;10.75;;;;;;;;;;5074511;28;20032;-78
2023/07/22 14:15:50;;;;;;;15.02;8.93;;;;;;;;;;5074826;28;20028;-75
2023/07/22 14:18:17;;;;;;;20.77;10.13;;;;;;;;;;5085998;28;20029;-74
2023/07/22 14:20:44;;;;;;;16.48;10.20;;;;;;;;;;5084685;28;20490;-73
2023/07/22 14:23:10;;;;;;;17.17;10.20;;;;;;;;;;5087197;28;20031;-74
2023/07/22 14:25:36;;;;;;;16.90;9.48;;;;;;;;;;5088422;28;20021;-74